sensor_id;sensor_type;location;lat;lon;timestamp;P1;durP1;ratioP1;P2;durP2;ratioP2
13708;SDS011;54933;51.908;7.730;2023-08-20T00:01:42;2.63;;;2.40;;
13708;SDS011;54933;51.908;7.730;2023-08-20T00:04:08;2.80;;;2.60;;
13708;SDS011;54933;51.908;7.730;2023-08-20T00:06:34;2.60;;;2.40;;
13708;SDS011;54933;51.908;7.730;2023-08-20T00:08:59;2.57;;;2.47;;
13708;SDS011;54933;51.908;7.730;2023-08-20T00:11:25;2.60;;;2.50;;
13708;SDS011;54933;51.908;7.730;2023-08-20T00:13:50;3.27;;;2.97;;
13708;SDS011;54933;51.908;7.730;2023-08-20T00:16:15;2.47;;;2.37;;
13708;SDS011;54933;51.908;7.730;2023-08-20T00:18:41;2.80;;;2.60;;
13708;SDS011;54933;51.908;7.730;2023-08-20T00:21:07;2.90;;;2.70;;
13708;SDS011;54933;51.908;7.730;2023-08-20T00:23:33;2.80;;;2.60;;
13708;SDS011;54933;51.908;7.730;2023-08-20T00:26:00;2.83;;;2.60;;
13708;SDS011;54933;51.908;7.730;2023-08-20T00:28:27;3.07;;;2.70;;
13708;SDS011;54933;51.908;7.730;2023-08-20T00:30:52;2.47;;;2.37;;
13708;SDS011;54933;51.908;7.730;2023-08-20T00:33:17;2.57;;;2.47;;
13708;SDS011;54933;51.908;7.730;2023-08-20T00:35:43;2.67;;;2.40;;
13708;SDS011;54933;51.908;7.730;2023-08-20T00:38:08;3.17;;;2.97;;
13708;SDS011;54933;51.908;7.730;2023-08-20T00:40:33;2.23;;;2.13;;
13708;SDS011;54933;51.908;7.730;2023-08-20T00:42:58;2.67;;;2.57;;
13708;SDS011;54933;51.908;7.730;2023-08-20T00:45:24;2.47;;;2.27;;
13708;SDS011;54933;51.908;7.730;2023-08-20T00:47:50;2.13;;;2.03;;
13708;SDS011;54933;51.908;7.730;2023-08-20T00:50:16;2.30;;;2.20;;
13708;SDS011;54933;51.908;7.730;2023-08-20T00:52:42;2.60;;;2.40;;
13708;SDS011;54933;51.908;7.730;2023-08-20T00:55:11;2.47;;;2.27;;
13708;SDS011;54933;51.908;7.730;2023-08-20T00:57:38;2.90;;;2.43;;
13708;SDS011;54933;51.908;7.730;2023-08-20T01:00:05;2.80;;;2.60;;
13708;SDS011;54933;51.908;7.730;2023-08-20T01:02:35;2.50;;;2.40;;
13708;SDS011;54933;51.908;7.730;2023-08-20T01:05:02;2.50;;;2.30;;
13708;SDS011;54933;51.908;7.730;2023-08-20T01:07:33;2.50;;;2.30;;
13708;SDS011;54933;51.908;7.730;2023-08-20T01:10:18;2.33;;;2.23;;
13708;SDS011;54933;51.908;7.730;2023-08-20T01:12:48;1.97;;;1.87;;
13708;SDS011;54933;51.908;7.730;2023-08-20T01:15:15;2.20;;;2.00;;
13708;SDS011;54933;51.908;7.730;2023-08-20T01:17:41;2.83;;;2.63;;
13708;SDS011;54933;51.908;7.730;2023-08-20T01:20:07;2.00;;;1.90;;
13708;SDS011;54933;51.908;7.730;2023-08-20T01:27:49;2.40;;;2.30;;
13708;SDS011;54933;51.908;7.730;2023-08-20T01:30:28;1.90;;;1.80;;
13708;SDS011;54933;51.908;7.730;2023-08-20T01:32:54;2.27;;;2.17;;
13708;SDS011;54933;51.908;7.730;2023-08-20T01:35:20;2.20;;;2.10;;
13708;SDS011;54933;51.908;7.730;2023-08-20T01:37:49;2.03;;;1.93;;
13708;SDS011;54933;51.908;7.730;2023-08-20T01:40:14;2.27;;;2.10;;
13708;SDS011;54933;51.908;7.730;2023-08-20T01:42:40;2.13;;;2.03;;
13708;SDS011;54933;51.908;7.730;2023-08-20T01:45:06;2.07;;;1.97;;
13708;SDS011;54933;51.908;7.730;2023-08-20T01:47:34;2.40;;;2.20;;
13708;SDS011;54933;51.908;7.730;2023-08-20T01:50:00;2.23;;;2.13;;
13708;SDS011;54933;51.908;7.730;2023-08-20T01:52:25;4.40;;;2.20;;
13708;SDS011;54933;51.908;7.730;2023-08-20T01:54:51;2.10;;;2.00;;
13708;SDS011;54933;51.908;7.730;2023-08-20T01:57:17;2.10;;;2.00;;
13708;SDS011;54933;51.908;7.730;2023-08-20T01:59:42;2.20;;;2.00;;
13708;SDS011;54933;51.908;7.730;2023-08-20T02:02:08;2.17;;;2.00;;
13708;SDS011;54933;51.908;7.730;2023-08-20T02:04:33;2.30;;;2.20;;
13708;SDS011;54933;51.908;7.730;2023-08-20T02:06:59;2.20;;;2.10;;
13708;SDS011;54933;51.908;7.730;2023-08-20T02:09:24;2.40;;;2.23;;
13708;SDS011;54933;51.908;7.730;2023-08-20T02:11:50;2.00;;;1.90;;
13708;SDS011;54933;51.908;7.730;2023-08-20T02:14:15;2.00;;;1.90;;
13708;SDS011;54933;51.908;7.730;2023-08-20T02:16:41;1.90;;;1.80;;
13708;SDS011;54933;51.908;7.730;2023-08-20T02:19:06;2.10;;;2.00;;
13708;SDS011;54933;51.908;7.730;2023-08-20T02:21:32;2.23;;;2.03;;
13708;SDS011;54933;51.908;7.730;2023-08-20T02:23:58;2.00;;;1.90;;
13708;SDS011;54933;51.908;7.730;2023-08-20T02:26:23;1.87;;;1.77;;
13708;SDS011;54933;51.908;7.730;2023-08-20T02:28:48;2.70;;;2.00;;
13708;SDS011;54933;51.908;7.730;2023-08-20T02:31:13;2.10;;;2.00;;
13708;SDS011;54933;51.908;7.730;2023-08-20T02:33:39;2.10;;;2.00;;
13708;SDS011;54933;51.908;7.730;2023-08-20T02:36:04;2.00;;;1.90;;
13708;SDS011;54933;51.908;7.730;2023-08-20T02:38:30;1.90;;;1.80;;
13708;SDS011;54933;51.908;7.730;2023-08-20T02:40:55;2.97;;;2.13;;
13708;SDS011;54933;51.908;7.730;2023-08-20T02:43:21;2.03;;;1.77;;
13708;SDS011;54933;51.908;7.730;2023-08-20T02:45:46;1.90;;;1.80;;
13708;SDS011;54933;51.908;7.730;2023-08-20T02:48:11;2.00;;;1.90;;
13708;SDS011;54933;51.908;7.730;2023-08-20T02:50:39;1.90;;;1.80;;
13708;SDS011;54933;51.908;7.730;2023-08-20T02:53:04;1.60;;;1.50;;
13708;SDS011;54933;51.908;7.730;2023-08-20T02:55:30;1.50;;;1.50;;
13708;SDS011;54933;51.908;7.730;2023-08-20T02:57:56;1.87;;;1.77;;
13708;SDS011;54933;51.908;7.730;2023-08-20T03:00:21;1.80;;;1.70;;
13708;SDS011;54933;51.908;7.730;2023-08-20T03:02:46;1.97;;;1.87;;
13708;SDS011;54933;51.908;7.730;2023-08-20T03:05:12;1.83;;;1.73;;
13708;SDS011;54933;51.908;7.730;2023-08-20T03:07:37;2.00;;;1.87;;
13708;SDS011;54933;51.908;7.730;2023-08-20T03:10:02;1.60;;;1.60;;
13708;SDS011;54933;51.908;7.730;2023-08-20T03:12:28;2.00;;;1.90;;
13708;SDS011;54933;51.908;7.730;2023-08-20T03:14:54;1.53;;;1.50;;
13708;SDS011;54933;51.908;7.730;2023-08-20T03:17:19;2.43;;;1.70;;
13708;SDS011;54933;51.908;7.730;2023-08-20T03:19:58;1.87;;;1.77;;
13708;SDS011;54933;51.908;7.730;2023-08-20T03:22:25;1.80;;;1.70;;
13708;SDS011;54933;51.908;7.730;2023-08-20T03:24:51;2.13;;;1.70;;
13708;SDS011;54933;51.908;7.730;2023-08-20T03:27:17;1.53;;;1.43;;
13708;SDS011;54933;51.908;7.730;2023-08-20T03:29:43;1.63;;;1.63;;
13708;SDS011;54933;51.908;7.730;2023-08-20T03:32:08;1.87;;;1.77;;
13708;SDS011;54933;51.908;7.730;2023-08-20T03:34:34;1.73;;;1.63;;
13708;SDS011;54933;51.908;7.730;2023-08-20T03:36:59;1.53;;;1.50;;
13708;SDS011;54933;51.908;7.730;2023-08-20T03:39:25;1.50;;;1.50;;
13708;SDS011;54933;51.908;7.730;2023-08-20T03:41:50;1.90;;;1.80;;
13708;SDS011;54933;51.908;7.730;2023-08-20T03:44:17;1.60;;;1.50;;
13708;SDS011;54933;51.908;7.730;2023-08-20T03:46:42;1.67;;;1.60;;
13708;SDS011;54933;51.908;7.730;2023-08-20T03:49:07;1.80;;;1.73;;
13708;SDS011;54933;51.908;7.730;2023-08-20T03:51:32;1.80;;;1.70;;
13708;SDS011;54933;51.908;7.730;2023-08-20T03:53:58;1.70;;;1.60;;
13708;SDS011;54933;51.908;7.730;2023-08-20T03:56:23;1.73;;;1.63;;
13708;SDS011;54933;51.908;7.730;2023-08-20T03:58:48;1.90;;;1.80;;
13708;SDS011;54933;51.908;7.730;2023-08-20T04:01:13;1.70;;;1.60;;
13708;SDS011;54933;51.908;7.730;2023-08-20T04:03:39;1.50;;;1.50;;
13708;SDS011;54933;51.908;7.730;2023-08-20T04:06:04;1.67;;;1.67;;
13708;SDS011;54933;51.908;7.730;2023-08-20T04:08:29;1.80;;;1.30;;
13708;SDS011;54933;51.908;7.730;2023-08-20T04:10:55;1.60;;;1.60;;
13708;SDS011;54933;51.908;7.730;2023-08-20T04:13:20;1.80;;;1.70;;
13708;SDS011;54933;51.908;7.730;2023-08-20T04:15:45;1.70;;;1.60;;
13708;SDS011;54933;51.908;7.730;2023-08-20T04:18:10;2.27;;;1.70;;
13708;SDS011;54933;51.908;7.730;2023-08-20T04:20:36;1.67;;;1.43;;
13708;SDS011;54933;51.908;7.730;2023-08-20T04:23:01;1.50;;;1.50;;
13708;SDS011;54933;51.908;7.730;2023-08-20T04:25:27;1.60;;;1.50;;
13708;SDS011;54933;51.908;7.730;2023-08-20T04:27:52;1.50;;;1.40;;
13708;SDS011;54933;51.908;7.730;2023-08-20T04:30:17;4.10;;;1.70;;
13708;SDS011;54933;51.908;7.730;2023-08-20T04:32:43;1.63;;;1.63;;
13708;SDS011;54933;51.908;7.730;2023-08-20T04:35:08;1.60;;;1.50;;
13708;SDS011;54933;51.908;7.730;2023-08-20T04:37:33;1.70;;;1.60;;
13708;SDS011;54933;51.908;7.730;2023-08-20T04:39:59;1.50;;;1.43;;
13708;SDS011;54933;51.908;7.730;2023-08-20T04:42:24;1.70;;;1.30;;
13708;SDS011;54933;51.908;7.730;2023-08-20T04:44:50;1.57;;;1.47;;
13708;SDS011;54933;51.908;7.730;2023-08-20T04:47:15;1.30;;;1.30;;
13708;SDS011;54933;51.908;7.730;2023-08-20T04:49:40;2.10;;;1.40;;
13708;SDS011;54933;51.908;7.730;2023-08-20T04:52:06;1.63;;;1.40;;
13708;SDS011;54933;51.908;7.730;2023-08-20T04:54:31;1.40;;;1.40;;
13708;SDS011;54933;51.908;7.730;2023-08-20T04:56:56;1.30;;;1.30;;
13708;SDS011;54933;51.908;7.730;2023-08-20T04:59:22;1.43;;;1.37;;
13708;SDS011;54933;51.908;7.730;2023-08-20T05:01:47;1.37;;;1.37;;
13708;SDS011;54933;51.908;7.730;2023-08-20T05:04:12;1.40;;;1.40;;
13708;SDS011;54933;51.908;7.730;2023-08-20T05:06:38;1.40;;;1.40;;
13708;SDS011;54933;51.908;7.730;2023-08-20T05:09:03;1.40;;;1.40;;
13708;SDS011;54933;51.908;7.730;2023-08-20T05:11:28;1.17;;;1.17;;
13708;SDS011;54933;51.908;7.730;2023-08-20T05:13:56;1.40;;;1.40;;
13708;SDS011;54933;51.908;7.730;2023-08-20T05:16:21;1.43;;;1.43;;
13708;SDS011;54933;51.908;7.730;2023-08-20T05:18:47;1.40;;;1.40;;
13708;SDS011;54933;51.908;7.730;2023-08-20T05:21:12;1.50;;;1.50;;
13708;SDS011;54933;51.908;7.730;2023-08-20T05:23:38;2.10;;;1.33;;
13708;SDS011;54933;51.908;7.730;2023-08-20T05:26:05;1.30;;;1.30;;
13708;SDS011;54933;51.908;7.730;2023-08-20T05:28:31;1.47;;;1.47;;
13708;SDS011;54933;51.908;7.730;2023-08-20T05:30:56;1.50;;;1.50;;
13708;SDS011;54933;51.908;7.730;2023-08-20T05:33:22;1.37;;;1.37;;
13708;SDS011;54933;51.908;7.730;2023-08-20T05:35:48;1.40;;;1.30;;
13708;SDS011;54933;51.908;7.730;2023-08-20T05:38:14;1.40;;;1.37;;
13708;SDS011;54933;51.908;7.730;2023-08-20T05:40:39;1.30;;;1.30;;
13708;SDS011;54933;51.908;7.730;2023-08-20T05:43:04;1.70;;;1.63;;
13708;SDS011;54933;51.908;7.730;2023-08-20T05:45:30;1.80;;;1.70;;
13708;SDS011;54933;51.908;7.730;2023-08-20T05:47:55;1.50;;;1.50;;
13708;SDS011;54933;51.908;7.730;2023-08-20T05:50:20;1.27;;;1.27;;
13708;SDS011;54933;51.908;7.730;2023-08-20T05:52:45;1.23;;;1.13;;
13708;SDS011;54933;51.908;7.730;2023-08-20T05:55:11;1.30;;;1.30;;
13708;SDS011;54933;51.908;7.730;2023-08-20T05:57:36;1.50;;;1.50;;
13708;SDS011;54933;51.908;7.730;2023-08-20T06:00:02;1.33;;;1.33;;
13708;SDS011;54933;51.908;7.730;2023-08-20T06:02:29;1.50;;;1.20;;
13708;SDS011;54933;51.908;7.730;2023-08-20T06:04:54;2.30;;;1.70;;
13708;SDS011;54933;51.908;7.730;2023-08-20T06:07:20;1.50;;;1.40;;
13708;SDS011;54933;51.908;7.730;2023-08-20T06:09:45;1.40;;;1.40;;
13708;SDS011;54933;51.908;7.730;2023-08-20T06:12:11;1.20;;;1.20;;
13708;SDS011;54933;51.908;7.730;2023-08-20T06:14:36;1.23;;;1.23;;
13708;SDS011;54933;51.908;7.730;2023-08-20T06:17:01;1.27;;;1.27;;
13708;SDS011;54933;51.908;7.730;2023-08-20T06:19:27;1.30;;;1.30;;
13708;SDS011;54933;51.908;7.730;2023-08-20T06:21:54;1.20;;;1.20;;
13708;SDS011;54933;51.908;7.730;2023-08-20T06:24:19;1.30;;;1.30;;
13708;SDS011;54933;51.908;7.730;2023-08-20T06:26:44;1.30;;;1.30;;
13708;SDS011;54933;51.908;7.730;2023-08-20T06:29:10;1.50;;;1.40;;
13708;SDS011;54933;51.908;7.730;2023-08-20T06:31:35;1.23;;;1.23;;
13708;SDS011;54933;51.908;7.730;2023-08-20T06:34:00;1.33;;;1.33;;
13708;SDS011;54933;51.908;7.730;2023-08-20T06:36:26;1.50;;;1.40;;
13708;SDS011;54933;51.908;7.730;2023-08-20T06:38:51;1.10;;;1.10;;
13708;SDS011;54933;51.908;7.730;2023-08-20T06:41:17;1.50;;;1.50;;
13708;SDS011;54933;51.908;7.730;2023-08-20T06:43:42;1.33;;;1.33;;
13708;SDS011;54933;51.908;7.730;2023-08-20T06:46:08;1.47;;;1.23;;
13708;SDS011;54933;51.908;7.730;2023-08-20T06:48:34;1.40;;;1.30;;
13708;SDS011;54933;51.908;7.730;2023-08-20T06:51:07;1.57;;;1.47;;
13708;SDS011;54933;51.908;7.730;2023-08-20T06:53:33;1.50;;;1.50;;
13708;SDS011;54933;51.908;7.730;2023-08-20T06:55:58;1.43;;;1.43;;
13708;SDS011;54933;51.908;7.730;2023-08-20T06:58:23;1.13;;;1.13;;
13708;SDS011;54933;51.908;7.730;2023-08-20T07:00:49;1.10;;;1.10;;
13708;SDS011;54933;51.908;7.730;2023-08-20T07:03:14;1.60;;;1.30;;
13708;SDS011;54933;51.908;7.730;2023-08-20T07:05:39;1.70;;;1.60;;
13708;SDS011;54933;51.908;7.730;2023-08-20T07:08:04;1.23;;;1.23;;
13708;SDS011;54933;51.908;7.730;2023-08-20T07:10:30;1.50;;;1.50;;
13708;SDS011;54933;51.908;7.730;2023-08-20T07:12:55;1.30;;;1.30;;
13708;SDS011;54933;51.908;7.730;2023-08-20T07:15:20;2.20;;;1.30;;
13708;SDS011;54933;51.908;7.730;2023-08-20T07:17:46;1.40;;;1.40;;
13708;SDS011;54933;51.908;7.730;2023-08-20T07:20:11;1.77;;;1.67;;
13708;SDS011;54933;51.908;7.730;2023-08-20T07:22:36;1.40;;;1.40;;
13708;SDS011;54933;51.908;7.730;2023-08-20T07:25:01;1.83;;;1.63;;
13708;SDS011;54933;51.908;7.730;2023-08-20T07:27:27;1.30;;;1.30;;
13708;SDS011;54933;51.908;7.730;2023-08-20T07:29:52;1.50;;;1.50;;
13708;SDS011;54933;51.908;7.730;2023-08-20T07:32:18;2.00;;;1.90;;
13708;SDS011;54933;51.908;7.730;2023-08-20T07:34:43;1.70;;;1.60;;
13708;SDS011;54933;51.908;7.730;2023-08-20T07:37:08;2.27;;;1.70;;
13708;SDS011;54933;51.908;7.730;2023-08-20T07:39:33;2.43;;;1.47;;
13708;SDS011;54933;51.908;7.730;2023-08-20T07:41:59;1.63;;;1.53;;
13708;SDS011;54933;51.908;7.730;2023-08-20T07:44:25;1.93;;;1.83;;
13708;SDS011;54933;51.908;7.730;2023-08-20T07:46:50;1.70;;;1.67;;
13708;SDS011;54933;51.908;7.730;2023-08-20T07:49:16;1.97;;;1.60;;
13708;SDS011;54933;51.908;7.730;2023-08-20T07:51:41;2.83;;;1.50;;
13708;SDS011;54933;51.908;7.730;2023-08-20T07:54:06;4.03;;;1.93;;
13708;SDS011;54933;51.908;7.730;2023-08-20T07:56:31;6.33;;;2.23;;
13708;SDS011;54933;51.908;7.730;2023-08-20T07:58:57;2.70;;;2.33;;
13708;SDS011;54933;51.908;7.730;2023-08-20T08:01:22;5.00;;;2.37;;
13708;SDS011;54933;51.908;7.730;2023-08-20T08:03:47;2.97;;;2.67;;
13708;SDS011;54933;51.908;7.730;2023-08-20T08:06:12;3.57;;;2.37;;
13708;SDS011;54933;51.908;7.730;2023-08-20T08:08:41;5.60;;;2.50;;
13708;SDS011;54933;51.908;7.730;2023-08-20T08:11:07;4.27;;;2.43;;
13708;SDS011;54933;51.908;7.730;2023-08-20T08:13:32;4.17;;;2.50;;
13708;SDS011;54933;51.908;7.730;2023-08-20T08:15:58;6.50;;;3.90;;
13708;SDS011;54933;51.908;7.730;2023-08-20T08:18:23;3.40;;;2.53;;
13708;SDS011;54933;51.908;7.730;2023-08-20T08:20:48;3.17;;;2.67;;
13708;SDS011;54933;51.908;7.730;2023-08-20T08:23:14;19.60;;;3.63;;
13708;SDS011;54933;51.908;7.730;2023-08-20T08:25:39;7.53;;;2.97;;
13708;SDS011;54933;51.908;7.730;2023-08-20T08:28:05;6.27;;;2.77;;
13708;SDS011;54933;51.908;7.730;2023-08-20T08:30:30;2.97;;;2.77;;
13708;SDS011;54933;51.908;7.730;2023-08-20T08:32:56;3.77;;;2.53;;
13708;SDS011;54933;51.908;7.730;2023-08-20T08:35:21;5.80;;;2.77;;
13708;SDS011;54933;51.908;7.730;2023-08-20T08:37:46;4.00;;;2.53;;
13708;SDS011;54933;51.908;7.730;2023-08-20T08:40:12;5.70;;;2.47;;
13708;SDS011;54933;51.908;7.730;2023-08-20T08:42:37;7.63;;;2.60;;
13708;SDS011;54933;51.908;7.730;2023-08-20T08:45:03;5.50;;;2.00;;
13708;SDS011;54933;51.908;7.730;2023-08-20T08:47:29;3.20;;;2.33;;
13708;SDS011;54933;51.908;7.730;2023-08-20T08:49:55;2.53;;;2.33;;
13708;SDS011;54933;51.908;7.730;2023-08-20T08:52:25;2.63;;;2.43;;
13708;SDS011;54933;51.908;7.730;2023-08-20T08:54:50;4.83;;;2.40;;
13708;SDS011;54933;51.908;7.730;2023-08-20T08:57:16;3.37;;;2.23;;
13708;SDS011;54933;51.908;7.730;2023-08-20T08:59:42;3.33;;;2.63;;
13708;SDS011;54933;51.908;7.730;2023-08-20T09:02:08;3.43;;;2.40;;
13708;SDS011;54933;51.908;7.730;2023-08-20T09:04:37;2.67;;;2.43;;
13708;SDS011;54933;51.908;7.730;2023-08-20T09:07:04;4.73;;;2.60;;
13708;SDS011;54933;51.908;7.730;2023-08-20T09:09:29;3.47;;;3.17;;
13708;SDS011;54933;51.908;7.730;2023-08-20T09:11:55;5.80;;;2.30;;
13708;SDS011;54933;51.908;7.730;2023-08-20T09:14:20;15.20;;;2.63;;
13708;SDS011;54933;51.908;7.730;2023-08-20T09:16:50;7.10;;;3.40;;
13708;SDS011;54933;51.908;7.730;2023-08-20T09:19:19;82.13;;;8.20;;
13708;SDS011;54933;51.908;7.730;2023-08-20T09:21:45;99.50;;;11.77;;
13708;SDS011;54933;51.908;7.730;2023-08-20T09:24:11;63.47;;;10.10;;
13708;SDS011;54933;51.908;7.730;2023-08-20T09:26:37;67.00;;;9.80;;
13708;SDS011;54933;51.908;7.730;2023-08-20T09:29:02;56.60;;;9.17;;
13708;SDS011;54933;51.908;7.730;2023-08-20T09:31:38;45.23;;;7.77;;
13708;SDS011;54933;51.908;7.730;2023-08-20T09:34:04;41.23;;;8.47;;
13708;SDS011;54933;51.908;7.730;2023-08-20T09:36:30;26.63;;;7.10;;
13708;SDS011;54933;51.908;7.730;2023-08-20T09:38:57;29.20;;;7.07;;
13708;SDS011;54933;51.908;7.730;2023-08-20T09:41:22;30.23;;;5.73;;
13708;SDS011;54933;51.908;7.730;2023-08-20T09:43:48;38.60;;;6.90;;
13708;SDS011;54933;51.908;7.730;2023-08-20T09:46:14;27.13;;;6.20;;
13708;SDS011;54933;51.908;7.730;2023-08-20T09:48:42;22.70;;;5.03;;
13708;SDS011;54933;51.908;7.730;2023-08-20T09:51:10;25.97;;;5.60;;
13708;SDS011;54933;51.908;7.730;2023-08-20T09:53:37;14.47;;;4.93;;
13708;SDS011;54933;51.908;7.730;2023-08-20T09:56:15;17.80;;;4.90;;
13708;SDS011;54933;51.908;7.730;2023-08-20T09:58:52;18.70;;;4.67;;
13708;SDS011;54933;51.908;7.730;2023-08-20T10:01:19;15.87;;;5.50;;
13708;SDS011;54933;51.908;7.730;2023-08-20T10:03:45;26.20;;;5.27;;
13708;SDS011;54933;51.908;7.730;2023-08-20T10:06:10;17.73;;;4.63;;
13708;SDS011;54933;51.908;7.730;2023-08-20T10:08:36;17.60;;;5.67;;
13708;SDS011;54933;51.908;7.730;2023-08-20T10:11:02;13.63;;;4.10;;
13708;SDS011;54933;51.908;7.730;2023-08-20T10:13:27;16.40;;;5.13;;
13708;SDS011;54933;51.908;7.730;2023-08-20T10:15:53;13.70;;;4.43;;
13708;SDS011;54933;51.908;7.730;2023-08-20T10:18:20;13.43;;;4.33;;
13708;SDS011;54933;51.908;7.730;2023-08-20T10:20:46;14.17;;;4.67;;
13708;SDS011;54933;51.908;7.730;2023-08-20T10:23:14;9.90;;;4.67;;
13708;SDS011;54933;51.908;7.730;2023-08-20T10:25:41;8.57;;;3.90;;
13708;SDS011;54933;51.908;7.730;2023-08-20T10:28:32;13.27;;;4.70;;
13708;SDS011;54933;51.908;7.730;2023-08-20T10:36:18;13.77;;;4.83;;
13708;SDS011;54933;51.908;7.730;2023-08-20T10:38:51;6.30;;;4.00;;
13708;SDS011;54933;51.908;7.730;2023-08-20T10:41:24;9.60;;;4.20;;
13708;SDS011;54933;51.908;7.730;2023-08-20T10:43:50;12.40;;;4.00;;
13708;SDS011;54933;51.908;7.730;2023-08-20T10:46:21;8.07;;;3.83;;
13708;SDS011;54933;51.908;7.730;2023-08-20T10:48:52;8.37;;;3.70;;
13708;SDS011;54933;51.908;7.730;2023-08-20T10:56:24;4.60;;;3.47;;
13708;SDS011;54933;51.908;7.730;2023-08-20T10:59:05;4.83;;;3.87;;
13708;SDS011;54933;51.908;7.730;2023-08-20T11:01:33;10.00;;;3.70;;
13708;SDS011;54933;51.908;7.730;2023-08-20T11:03:59;9.23;;;3.80;;
13708;SDS011;54933;51.908;7.730;2023-08-20T11:06:30;12.50;;;3.50;;
13708;SDS011;54933;51.908;7.730;2023-08-20T11:08:56;10.97;;;3.40;;
13708;SDS011;54933;51.908;7.730;2023-08-20T11:11:22;5.30;;;3.87;;
13708;SDS011;54933;51.908;7.730;2023-08-20T11:13:48;7.80;;;4.23;;
13708;SDS011;54933;51.908;7.730;2023-08-20T11:16:14;5.43;;;3.40;;
13708;SDS011;54933;51.908;7.730;2023-08-20T11:18:39;7.03;;;3.67;;
13708;SDS011;54933;51.908;7.730;2023-08-20T11:21:04;5.73;;;3.37;;
13708;SDS011;54933;51.908;7.730;2023-08-20T11:23:30;6.73;;;3.63;;
13708;SDS011;54933;51.908;7.730;2023-08-20T11:25:56;4.43;;;3.87;;
13708;SDS011;54933;51.908;7.730;2023-08-20T11:28:22;4.47;;;3.60;;
13708;SDS011;54933;51.908;7.730;2023-08-20T11:30:49;4.10;;;3.50;;
13708;SDS011;54933;51.908;7.730;2023-08-20T11:33:14;4.63;;;3.50;;
13708;SDS011;54933;51.908;7.730;2023-08-20T11:35:41;4.00;;;3.60;;
13708;SDS011;54933;51.908;7.730;2023-08-20T11:38:09;3.57;;;3.27;;
13708;SDS011;54933;51.908;7.730;2023-08-20T11:40:35;4.17;;;3.13;;
13708;SDS011;54933;51.908;7.730;2023-08-20T11:43:01;6.27;;;3.20;;
13708;SDS011;54933;51.908;7.730;2023-08-20T11:45:26;5.07;;;3.83;;
13708;SDS011;54933;51.908;7.730;2023-08-20T11:47:55;6.03;;;3.40;;
13708;SDS011;54933;51.908;7.730;2023-08-20T11:50:22;3.37;;;3.07;;
13708;SDS011;54933;51.908;7.730;2023-08-20T11:52:47;3.50;;;3.20;;
13708;SDS011;54933;51.908;7.730;2023-08-20T11:55:12;5.93;;;3.10;;
13708;SDS011;54933;51.908;7.730;2023-08-20T11:57:38;5.53;;;3.47;;
13708;SDS011;54933;51.908;7.730;2023-08-20T12:00:03;3.87;;;3.30;;
13708;SDS011;54933;51.908;7.730;2023-08-20T12:02:34;3.30;;;3.00;;
13708;SDS011;54933;51.908;7.730;2023-08-20T12:04:59;3.40;;;3.17;;
13708;SDS011;54933;51.908;7.730;2023-08-20T12:07:25;6.07;;;3.30;;
13708;SDS011;54933;51.908;7.730;2023-08-20T12:09:52;3.60;;;3.03;;
13708;SDS011;54933;51.908;7.730;2023-08-20T12:12:21;3.20;;;3.00;;
13708;SDS011;54933;51.908;7.730;2023-08-20T12:14:47;3.43;;;3.13;;
13708;SDS011;54933;51.908;7.730;2023-08-20T12:17:12;3.37;;;2.80;;
13708;SDS011;54933;51.908;7.730;2023-08-20T12:19:37;3.37;;;3.03;;
13708;SDS011;54933;51.908;7.730;2023-08-20T12:22:03;2.93;;;2.63;;
13708;SDS011;54933;51.908;7.730;2023-08-20T12:24:28;3.03;;;2.83;;
13708;SDS011;54933;51.908;7.730;2023-08-20T12:26:54;3.37;;;3.00;;
13708;SDS011;54933;51.908;7.730;2023-08-20T12:29:19;2.93;;;2.70;;
13708;SDS011;54933;51.908;7.730;2023-08-20T12:31:45;2.97;;;2.77;;
13708;SDS011;54933;51.908;7.730;2023-08-20T12:34:10;3.33;;;3.03;;
13708;SDS011;54933;51.908;7.730;2023-08-20T12:36:36;3.83;;;2.90;;
13708;SDS011;54933;51.908;7.730;2023-08-20T12:39:01;3.40;;;2.80;;
13708;SDS011;54933;51.908;7.730;2023-08-20T12:41:28;4.07;;;2.80;;
13708;SDS011;54933;51.908;7.730;2023-08-20T12:43:53;3.90;;;3.17;;
13708;SDS011;54933;51.908;7.730;2023-08-20T12:46:19;2.97;;;2.77;;
13708;SDS011;54933;51.908;7.730;2023-08-20T12:48:45;2.93;;;2.70;;
13708;SDS011;54933;51.908;7.730;2023-08-20T12:51:10;3.40;;;3.10;;
13708;SDS011;54933;51.908;7.730;2023-08-20T12:53:38;3.50;;;3.20;;
13708;SDS011;54933;51.908;7.730;2023-08-20T12:56:03;3.03;;;2.83;;
13708;SDS011;54933;51.908;7.730;2023-08-20T12:58:29;3.10;;;2.90;;
13708;SDS011;54933;51.908;7.730;2023-08-20T13:00:54;3.93;;;3.57;;
13708;SDS011;54933;51.908;7.730;2023-08-20T13:03:20;2.87;;;2.67;;
13708;SDS011;54933;51.908;7.730;2023-08-20T13:05:45;2.93;;;2.73;;
13708;SDS011;54933;51.908;7.730;2023-08-20T13:08:11;3.00;;;2.80;;
13708;SDS011;54933;51.908;7.730;2023-08-20T13:10:38;3.40;;;3.07;;
13708;SDS011;54933;51.908;7.730;2023-08-20T13:13:05;3.13;;;2.93;;
13708;SDS011;54933;51.908;7.730;2023-08-20T13:15:35;3.20;;;2.97;;
13708;SDS011;54933;51.908;7.730;2023-08-20T13:18:01;3.10;;;2.80;;
13708;SDS011;54933;51.908;7.730;2023-08-20T13:20:27;3.50;;;3.17;;
13708;SDS011;54933;51.908;7.730;2023-08-20T13:22:52;3.30;;;3.07;;
13708;SDS011;54933;51.908;7.730;2023-08-20T13:25:18;3.60;;;3.10;;
13708;SDS011;54933;51.908;7.730;2023-08-20T13:27:46;3.30;;;2.63;;
13708;SDS011;54933;51.908;7.730;2023-08-20T13:30:11;3.23;;;3.00;;
13708;SDS011;54933;51.908;7.730;2023-08-20T13:32:37;3.50;;;3.20;;
13708;SDS011;54933;51.908;7.730;2023-08-20T13:35:02;3.03;;;2.83;;
13708;SDS011;54933;51.908;7.730;2023-08-20T13:37:31;2.93;;;2.67;;
13708;SDS011;54933;51.908;7.730;2023-08-20T13:39:57;3.50;;;3.20;;
13708;SDS011;54933;51.908;7.730;2023-08-20T13:42:22;3.03;;;2.80;;
13708;SDS011;54933;51.908;7.730;2023-08-20T13:44:48;2.63;;;2.50;;
13708;SDS011;54933;51.908;7.730;2023-08-20T13:47:13;2.80;;;2.60;;
13708;SDS011;54933;51.908;7.730;2023-08-20T13:49:38;3.90;;;3.00;;
13708;SDS011;54933;51.908;7.730;2023-08-20T13:52:04;3.43;;;2.70;;
13708;SDS011;54933;51.908;7.730;2023-08-20T13:54:29;2.97;;;2.77;;
13708;SDS011;54933;51.908;7.730;2023-08-20T13:56:55;3.00;;;2.80;;
13708;SDS011;54933;51.908;7.730;2023-08-20T13:59:21;3.17;;;2.90;;
13708;SDS011;54933;51.908;7.730;2023-08-20T14:01:46;3.23;;;3.03;;
13708;SDS011;54933;51.908;7.730;2023-08-20T14:04:11;3.53;;;3.27;;
13708;SDS011;54933;51.908;7.730;2023-08-20T14:06:37;3.10;;;2.83;;
13708;SDS011;54933;51.908;7.730;2023-08-20T14:09:02;3.33;;;3.03;;
13708;SDS011;54933;51.908;7.730;2023-08-20T14:11:29;3.43;;;3.13;;
13708;SDS011;54933;51.908;7.730;2023-08-20T14:13:55;3.37;;;3.10;;
13708;SDS011;54933;51.908;7.730;2023-08-20T14:16:20;3.53;;;2.90;;
13708;SDS011;54933;51.908;7.730;2023-08-20T14:18:45;2.90;;;2.70;;
13708;SDS011;54933;51.908;7.730;2023-08-20T14:21:11;3.53;;;3.23;;
13708;SDS011;54933;51.908;7.730;2023-08-20T14:23:36;3.00;;;2.80;;
13708;SDS011;54933;51.908;7.730;2023-08-20T14:26:03;3.03;;;2.83;;
13708;SDS011;54933;51.908;7.730;2023-08-20T14:28:31;3.53;;;3.23;;
13708;SDS011;54933;51.908;7.730;2023-08-20T14:30:56;3.10;;;2.90;;
13708;SDS011;54933;51.908;7.730;2023-08-20T14:33:21;4.47;;;3.13;;
13708;SDS011;54933;51.908;7.730;2023-08-20T14:35:47;2.93;;;2.73;;
13708;SDS011;54933;51.908;7.730;2023-08-20T14:38:12;3.37;;;3.03;;
13708;SDS011;54933;51.908;7.730;2023-08-20T14:40:39;3.67;;;3.03;;
13708;SDS011;54933;51.908;7.730;2023-08-20T14:43:08;3.10;;;2.90;;
13708;SDS011;54933;51.908;7.730;2023-08-20T14:45:33;3.10;;;2.83;;
13708;SDS011;54933;51.908;7.730;2023-08-20T14:47:59;3.23;;;3.03;;
13708;SDS011;54933;51.908;7.730;2023-08-20T14:50:24;3.10;;;2.90;;
13708;SDS011;54933;51.908;7.730;2023-08-20T14:52:49;3.07;;;2.87;;
13708;SDS011;54933;51.908;7.730;2023-08-20T14:55:20;2.80;;;2.70;;